sensor_id;sensor_type;location;lat;lon;timestamp;temperature;humidity
78325;DHT22;67584;51.400;6.692;2024-03-06T00:00:06;2.50;92.20
78325;DHT22;67584;51.400;6.692;2024-03-06T00:02:37;2.50;92.20
78325;DHT22;67584;51.400;6.692;2024-03-06T00:05:03;2.50;92.20
78325;DHT22;67584;51.400;6.692;2024-03-06T00:07:30;2.30;92.20
78325;DHT22;67584;51.400;6.692;2024-03-06T00:09:55;2.30;92.20
78325;DHT22;67584;51.400;6.692;2024-03-06T00:12:21;2.20;92.20
78325;DHT22;67584;51.400;6.692;2024-03-06T00:14:47;2.30;92.20
78325;DHT22;67584;51.400;6.692;2024-03-06T00:17:13;2.00;92.20
78325;DHT22;67584;51.400;6.692;2024-03-06T00:19:39;2.20;92.20
78325;DHT22;67584;51.400;6.692;2024-03-06T00:22:04;2.20;92.20
78325;DHT22;67584;51.400;6.692;2024-03-06T00:24:31;2.20;92.20
78325;DHT22;67584;51.400;6.692;2024-03-06T00:26:58;2.20;92.20
78325;DHT22;67584;51.400;6.692;2024-03-06T00:29:23;2.30;92.20
78325;DHT22;67584;51.400;6.692;2024-03-06T00:31:49;2.20;92.20
78325;DHT22;67584;51.400;6.692;2024-03-06T00:34:15;2.10;92.20
78325;DHT22;67584;51.400;6.692;2024-03-06T00:36:42;2.10;92.20
78325;DHT22;67584;51.400;6.692;2024-03-06T00:39:09;2.10;92.20
78325;DHT22;67584;51.400;6.692;2024-03-06T00:41:35;2.10;92.20
78325;DHT22;67584;51.400;6.692;2024-03-06T00:44:01;2.00;92.20
78325;DHT22;67584;51.400;6.692;2024-03-06T00:46:27;2.20;92.20
78325;DHT22;67584;51.400;6.692;2024-03-06T00:48:53;2.10;92.20
78325;DHT22;67584;51.400;6.692;2024-03-06T00:51:19;2.00;92.20
78325;DHT22;67584;51.400;6.692;2024-03-06T00:53:45;2.00;92.20
78325;DHT22;67584;51.400;6.692;2024-03-06T00:56:11;2.10;92.20
78325;DHT22;67584;51.400;6.692;2024-03-06T00:58:36;2.10;92.20
78325;DHT22;67584;51.400;6.692;2024-03-06T01:01:02;1.80;92.20
78325;DHT22;67584;51.400;6.692;2024-03-06T01:03:28;2.00;92.20
78325;DHT22;67584;51.400;6.692;2024-03-06T01:05:54;1.80;92.20
78325;DHT22;67584;51.400;6.692;2024-03-06T01:08:24;1.80;92.20
78325;DHT22;67584;51.400;6.692;2024-03-06T01:10:51;2.10;92.20
78325;DHT22;67584;51.400;6.692;2024-03-06T01:13:20;1.90;92.20
78325;DHT22;67584;51.400;6.692;2024-03-06T01:15:46;2.00;92.20
78325;DHT22;67584;51.400;6.692;2024-03-06T01:18:12;1.90;92.20
78325;DHT22;67584;51.400;6.692;2024-03-06T01:20:38;2.10;92.20
78325;DHT22;67584;51.400;6.692;2024-03-06T01:23:04;2.00;92.20
78325;DHT22;67584;51.400;6.692;2024-03-06T01:25:30;2.10;92.20
78325;DHT22;67584;51.400;6.692;2024-03-06T01:27:55;2.00;92.20
78325;DHT22;67584;51.400;6.692;2024-03-06T01:30:21;2.10;92.20
78325;DHT22;67584;51.400;6.692;2024-03-06T01:32:46;1.80;92.20
78325;DHT22;67584;51.400;6.692;2024-03-06T01:35:12;1.80;92.20
78325;DHT22;67584;51.400;6.692;2024-03-06T01:37:38;1.90;92.20
78325;DHT22;67584;51.400;6.692;2024-03-06T01:40:04;1.90;92.20
78325;DHT22;67584;51.400;6.692;2024-03-06T01:42:30;1.90;92.20
78325;DHT22;67584;51.400;6.692;2024-03-06T01:44:56;2.00;92.20
78325;DHT22;67584;51.400;6.692;2024-03-06T01:47:22;1.90;92.20
78325;DHT22;67584;51.400;6.692;2024-03-06T01:49:48;1.90;92.20
78325;DHT22;67584;51.400;6.692;2024-03-06T01:52:16;1.90;92.20
78325;DHT22;67584;51.400;6.692;2024-03-06T01:54:44;2.30;92.20
78325;DHT22;67584;51.400;6.692;2024-03-06T01:57:11;1.90;92.20
78325;DHT22;67584;51.400;6.692;2024-03-06T01:59:39;2.20;92.20
78325;DHT22;67584;51.400;6.692;2024-03-06T02:02:05;1.90;92.20
78325;DHT22;67584;51.400;6.692;2024-03-06T02:04:33;2.10;92.20
78325;DHT22;67584;51.400;6.692;2024-03-06T02:06:59;2.20;92.20
78325;DHT22;67584;51.400;6.692;2024-03-06T02:09:25;2.40;92.20
78325;DHT22;67584;51.400;6.692;2024-03-06T02:11:51;2.40;92.20
78325;DHT22;67584;51.400;6.692;2024-03-06T02:14:17;2.30;92.20
78325;DHT22;67584;51.400;6.692;2024-03-06T02:16:42;2.40;92.20
78325;DHT22;67584;51.400;6.692;2024-03-06T02:19:08;2.50;92.20
78325;DHT22;67584;51.400;6.692;2024-03-06T02:21:34;2.30;92.20
78325;DHT22;67584;51.400;6.692;2024-03-06T02:24:00;2.20;92.20
78325;DHT22;67584;51.400;6.692;2024-03-06T02:26:26;2.30;92.20
78325;DHT22;67584;51.400;6.692;2024-03-06T02:28:53;2.00;92.20
78325;DHT22;67584;51.400;6.692;2024-03-06T02:31:20;2.20;92.20
78325;DHT22;67584;51.400;6.692;2024-03-06T02:33:47;2.20;92.20
78325;DHT22;67584;51.400;6.692;2024-03-06T02:36:17;2.20;92.20
78325;DHT22;67584;51.400;6.692;2024-03-06T02:38:43;2.10;92.20
78325;DHT22;67584;51.400;6.692;2024-03-06T02:41:10;2.10;92.20
78325;DHT22;67584;51.400;6.692;2024-03-06T02:43:36;2.10;92.20
78325;DHT22;67584;51.400;6.692;2024-03-06T02:46:03;1.90;92.20
78325;DHT22;67584;51.400;6.692;2024-03-06T02:48:29;2.00;92.20
78325;DHT22;67584;51.400;6.692;2024-03-06T02:50:55;2.10;92.20
78325;DHT22;67584;51.400;6.692;2024-03-06T02:53:21;1.80;92.20
78325;DHT22;67584;51.400;6.692;2024-03-06T02:55:47;1.90;92.20
78325;DHT22;67584;51.400;6.692;2024-03-06T02:58:13;1.70;92.20
78325;DHT22;67584;51.400;6.692;2024-03-06T03:00:42;1.80;92.20
78325;DHT22;67584;51.400;6.692;2024-03-06T03:03:08;1.90;92.20
78325;DHT22;67584;51.400;6.692;2024-03-06T03:05:35;1.90;92.20
78325;DHT22;67584;51.400;6.692;2024-03-06T03:08:01;1.90;92.20
78325;DHT22;67584;51.400;6.692;2024-03-06T03:10:26;2.00;92.20
78325;DHT22;67584;51.400;6.692;2024-03-06T03:12:52;1.80;92.20
78325;DHT22;67584;51.400;6.692;2024-03-06T03:15:19;1.70;92.20
78325;DHT22;67584;51.400;6.692;2024-03-06T03:17:46;1.60;92.20
78325;DHT22;67584;51.400;6.692;2024-03-06T03:20:11;1.60;92.20
78325;DHT22;67584;51.400;6.692;2024-03-06T03:22:40;1.50;92.20
78325;DHT22;67584;51.400;6.692;2024-03-06T03:25:10;1.60;92.20
78325;DHT22;67584;51.400;6.692;2024-03-06T03:27:37;1.70;92.20
78325;DHT22;67584;51.400;6.692;2024-03-06T03:30:05;1.70;92.20
78325;DHT22;67584;51.400;6.692;2024-03-06T03:32:30;1.60;92.20
78325;DHT22;67584;51.400;6.692;2024-03-06T03:34:56;1.60;92.20
78325;DHT22;67584;51.400;6.692;2024-03-06T03:37:22;1.70;92.20
78325;DHT22;67584;51.400;6.692;2024-03-06T03:39:47;1.70;92.20
78325;DHT22;67584;51.400;6.692;2024-03-06T03:42:13;1.80;92.20
78325;DHT22;67584;51.400;6.692;2024-03-06T03:44:39;1.60;92.20
78325;DHT22;67584;51.400;6.692;2024-03-06T03:47:05;1.60;92.20
78325;DHT22;67584;51.400;6.692;2024-03-06T03:49:31;1.50;92.20
78325;DHT22;67584;51.400;6.692;2024-03-06T03:51:57;1.30;92.20
78325;DHT22;67584;51.400;6.692;2024-03-06T03:54:22;1.30;92.20
78325;DHT22;67584;51.400;6.692;2024-03-06T03:56:49;1.20;92.20
78325;DHT22;67584;51.400;6.692;2024-03-06T03:59:14;1.30;92.20
78325;DHT22;67584;51.400;6.692;2024-03-06T04:01:40;1.40;92.20
78325;DHT22;67584;51.400;6.692;2024-03-06T04:04:06;1.30;92.20
78325;DHT22;67584;51.400;6.692;2024-03-06T04:06:33;1.60;92.20
78325;DHT22;67584;51.400;6.692;2024-03-06T04:08:59;1.70;92.20
78325;DHT22;67584;51.400;6.692;2024-03-06T04:11:25;1.60;92.20
78325;DHT22;67584;51.400;6.692;2024-03-06T04:13:51;1.80;92.20
78325;DHT22;67584;51.400;6.692;2024-03-06T04:16:17;1.70;92.20
78325;DHT22;67584;51.400;6.692;2024-03-06T04:18:44;1.90;92.20
78325;DHT22;67584;51.400;6.692;2024-03-06T04:21:10;1.80;92.20
78325;DHT22;67584;51.400;6.692;2024-03-06T04:23:36;1.90;92.20
78325;DHT22;67584;51.400;6.692;2024-03-06T04:26:02;1.70;92.20
78325;DHT22;67584;51.400;6.692;2024-03-06T04:28:29;1.80;92.20
78325;DHT22;67584;51.400;6.692;2024-03-06T04:30:55;1.60;92.20
78325;DHT22;67584;51.400;6.692;2024-03-06T04:33:21;1.70;92.20
78325;DHT22;67584;51.400;6.692;2024-03-06T04:35:46;1.60;92.20
78325;DHT22;67584;51.400;6.692;2024-03-06T04:38:12;1.60;92.20
78325;DHT22;67584;51.400;6.692;2024-03-06T04:40:38;1.60;92.20
78325;DHT22;67584;51.400;6.692;2024-03-06T04:43:04;1.50;92.20
78325;DHT22;67584;51.400;6.692;2024-03-06T04:45:31;1.60;92.20
78325;DHT22;67584;51.400;6.692;2024-03-06T04:47:56;1.40;92.20
78325;DHT22;67584;51.400;6.692;2024-03-06T04:50:22;1.60;92.20
78325;DHT22;67584;51.400;6.692;2024-03-06T04:52:48;1.50;92.20
78325;DHT22;67584;51.400;6.692;2024-03-06T04:55:13;1.70;92.20
78325;DHT22;67584;51.400;6.692;2024-03-06T04:57:43;1.70;92.20
78325;DHT22;67584;51.400;6.692;2024-03-06T05:00:12;1.60;92.20
78325;DHT22;67584;51.400;6.692;2024-03-06T05:02:39;1.60;92.20
78325;DHT22;67584;51.400;6.692;2024-03-06T05:05:04;1.60;92.20
78325;DHT22;67584;51.400;6.692;2024-03-06T05:07:31;1.40;92.20
78325;DHT22;67584;51.400;6.692;2024-03-06T05:09:57;1.30;92.20
78325;DHT22;67584;51.400;6.692;2024-03-06T05:12:24;1.20;92.20
78325;DHT22;67584;51.400;6.692;2024-03-06T05:14:51;1.50;92.20
78325;DHT22;67584;51.400;6.692;2024-03-06T05:17:17;1.40;92.20
78325;DHT22;67584;51.400;6.692;2024-03-06T05:19:44;1.50;92.20
78325;DHT22;67584;51.400;6.692;2024-03-06T05:22:10;1.30;92.20
78325;DHT22;67584;51.400;6.692;2024-03-06T05:24:37;1.20;92.20
78325;DHT22;67584;51.400;6.692;2024-03-06T05:27:03;1.10;92.20
78325;DHT22;67584;51.400;6.692;2024-03-06T05:29:29;1.10;92.20
78325;DHT22;67584;51.400;6.692;2024-03-06T05:31:55;1.20;92.20
78325;DHT22;67584;51.400;6.692;2024-03-06T05:34:22;1.20;92.20
78325;DHT22;67584;51.400;6.692;2024-03-06T05:36:48;1.10;92.20
78325;DHT22;67584;51.400;6.692;2024-03-06T05:39:14;1.20;92.20
78325;DHT22;67584;51.400;6.692;2024-03-06T05:41:40;1.40;92.20
78325;DHT22;67584;51.400;6.692;2024-03-06T05:44:06;1.30;92.20
78325;DHT22;67584;51.400;6.692;2024-03-06T05:46:32;1.30;92.20
78325;DHT22;67584;51.400;6.692;2024-03-06T05:48:58;1.20;92.20
78325;DHT22;67584;51.400;6.692;2024-03-06T05:51:24;1.40;92.20
78325;DHT22;67584;51.400;6.692;2024-03-06T05:53:49;1.40;92.20
78325;DHT22;67584;51.400;6.692;2024-03-06T05:56:17;1.20;92.20
78325;DHT22;67584;51.400;6.692;2024-03-06T05:58:43;1.20;92.20
78325;DHT22;67584;51.400;6.692;2024-03-06T06:01:16;1.30;92.20
78325;DHT22;67584;51.400;6.692;2024-03-06T06:03:48;1.10;92.20
78325;DHT22;67584;51.400;6.692;2024-03-06T06:06:15;1.30;92.20
78325;DHT22;67584;51.400;6.692;2024-03-06T06:08:40;1.20;92.20
78325;DHT22;67584;51.400;6.692;2024-03-06T06:11:09;1.10;92.20
78325;DHT22;67584;51.400;6.692;2024-03-06T06:13:34;1.30;92.20
78325;DHT22;67584;51.400;6.692;2024-03-06T06:16:00;1.60;92.20
78325;DHT22;67584;51.400;6.692;2024-03-06T06:18:28;1.90;92.20
78325;DHT22;67584;51.400;6.692;2024-03-06T06:20:54;2.00;92.20
78325;DHT22;67584;51.400;6.692;2024-03-06T06:23:20;2.10;92.20
78325;DHT22;67584;51.400;6.692;2024-03-06T06:25:45;2.10;92.20
78325;DHT22;67584;51.400;6.692;2024-03-06T06:28:11;1.90;92.20
78325;DHT22;67584;51.400;6.692;2024-03-06T06:30:37;2.00;92.20
78325;DHT22;67584;51.400;6.692;2024-03-06T06:33:04;2.00;92.20
78325;DHT22;67584;51.400;6.692;2024-03-06T06:35:30;2.10;92.20
78325;DHT22;67584;51.400;6.692;2024-03-06T06:37:56;2.20;92.20
78325;DHT22;67584;51.400;6.692;2024-03-06T06:40:22;2.50;92.20
78325;DHT22;67584;51.400;6.692;2024-03-06T06:42:48;2.20;92.20
78325;DHT22;67584;51.400;6.692;2024-03-06T06:45:18;2.40;92.20
78325;DHT22;67584;51.400;6.692;2024-03-06T06:47:44;2.10;92.20
78325;DHT22;67584;51.400;6.692;2024-03-06T06:50:10;2.30;92.20
78325;DHT22;67584;51.400;6.692;2024-03-06T06:52:40;2.30;92.20
78325;DHT22;67584;51.400;6.692;2024-03-06T06:55:07;2.60;92.20
78325;DHT22;67584;51.400;6.692;2024-03-06T06:57:34;2.60;92.20
78325;DHT22;67584;51.400;6.692;2024-03-06T07:00:01;2.60;92.20
78325;DHT22;67584;51.400;6.692;2024-03-06T07:02:31;2.90;92.20
78325;DHT22;67584;51.400;6.692;2024-03-06T07:04:57;2.80;92.20
78325;DHT22;67584;51.400;6.692;2024-03-06T07:07:23;2.90;92.20
78325;DHT22;67584;51.400;6.692;2024-03-06T07:09:49;2.80;92.20
78325;DHT22;67584;51.400;6.692;2024-03-06T07:12:14;3.00;92.20
78325;DHT22;67584;51.400;6.692;2024-03-06T07:14:40;3.10;92.20
78325;DHT22;67584;51.400;6.692;2024-03-06T07:17:06;3.10;92.20
78325;DHT22;67584;51.400;6.692;2024-03-06T07:19:31;3.00;92.20
78325;DHT22;67584;51.400;6.692;2024-03-06T07:21:57;3.20;92.20
78325;DHT22;67584;51.400;6.692;2024-03-06T07:24:22;3.20;92.20
78325;DHT22;67584;51.400;6.692;2024-03-06T07:26:48;3.40;92.20
78325;DHT22;67584;51.400;6.692;2024-03-06T07:29:14;3.40;92.20
78325;DHT22;67584;51.400;6.692;2024-03-06T07:31:42;3.40;92.20
78325;DHT22;67584;51.400;6.692;2024-03-06T07:34:09;3.50;92.20
78325;DHT22;67584;51.400;6.692;2024-03-06T07:36:35;3.70;92.20
78325;DHT22;67584;51.400;6.692;2024-03-06T07:39:02;3.60;92.20
78325;DHT22;67584;51.400;6.692;2024-03-06T07:41:28;3.70;92.20
78325;DHT22;67584;51.400;6.692;2024-03-06T07:43:53;4.00;92.20
78325;DHT22;67584;51.400;6.692;2024-03-06T07:46:19;4.20;92.20
78325;DHT22;67584;51.400;6.692;2024-03-06T07:48:45;4.30;92.20
78325;DHT22;67584;51.400;6.692;2024-03-06T07:51:11;4.50;92.20
78325;DHT22;67584;51.400;6.692;2024-03-06T07:53:36;4.60;92.20
78325;DHT22;67584;51.400;6.692;2024-03-06T07:56:05;4.70;92.20
78325;DHT22;67584;51.400;6.692;2024-03-06T07:58:31;4.80;92.20
78325;DHT22;67584;51.400;6.692;2024-03-06T08:00:57;4.90;92.20
78325;DHT22;67584;51.400;6.692;2024-03-06T08:03:24;4.80;92.20
78325;DHT22;67584;51.400;6.692;2024-03-06T08:05:51;5.00;92.20
78325;DHT22;67584;51.400;6.692;2024-03-06T08:08:20;4.90;92.20
78325;DHT22;67584;51.400;6.692;2024-03-06T08:10:46;5.10;92.20
78325;DHT22;67584;51.400;6.692;2024-03-06T08:13:12;5.40;92.20
78325;DHT22;67584;51.400;6.692;2024-03-06T08:15:39;5.70;92.20
78325;DHT22;67584;51.400;6.692;2024-03-06T08:18:06;6.20;92.20
78325;DHT22;67584;51.400;6.692;2024-03-06T08:20:32;6.50;92.20
78325;DHT22;67584;51.400;6.692;2024-03-06T08:22:58;6.90;92.20
78325;DHT22;67584;51.400;6.692;2024-03-06T08:25:23;6.70;92.20
78325;DHT22;67584;51.400;6.692;2024-03-06T08:27:49;6.70;92.20
78325;DHT22;67584;51.400;6.692;2024-03-06T08:30:15;6.40;92.20
78325;DHT22;67584;51.400;6.692;2024-03-06T08:32:41;6.20;92.20
78325;DHT22;67584;51.400;6.692;2024-03-06T08:35:11;6.40;92.20
78325;DHT22;67584;51.400;6.692;2024-03-06T08:37:40;6.40;92.20
78325;DHT22;67584;51.400;6.692;2024-03-06T08:40:07;6.60;92.20
78325;DHT22;67584;51.400;6.692;2024-03-06T08:42:35;6.60;92.20
78325;DHT22;67584;51.400;6.692;2024-03-06T08:45:02;6.70;92.20
78325;DHT22;67584;51.400;6.692;2024-03-06T08:47:27;6.80;92.20
78325;DHT22;67584;51.400;6.692;2024-03-06T08:49:53;7.00;92.20
78325;DHT22;67584;51.400;6.692;2024-03-06T08:52:19;7.20;92.20
78325;DHT22;67584;51.400;6.692;2024-03-06T08:54:46;7.20;92.20
78325;DHT22;67584;51.400;6.692;2024-03-06T08:57:13;7.50;92.20
78325;DHT22;67584;51.400;6.692;2024-03-06T08:59:38;7.40;92.20
78325;DHT22;67584;51.400;6.692;2024-03-06T09:02:15;7.50;92.20
78325;DHT22;67584;51.400;6.692;2024-03-06T09:04:42;7.70;92.20
78325;DHT22;67584;51.400;6.692;2024-03-06T09:07:08;7.70;92.20
78325;DHT22;67584;51.400;6.692;2024-03-06T09:09:35;7.80;92.20
78325;DHT22;67584;51.400;6.692;2024-03-06T09:12:01;8.00;92.10
78325;DHT22;67584;51.400;6.692;2024-03-06T09:14:29;8.10;91.40
78325;DHT22;67584;51.400;6.692;2024-03-06T09:16:55;8.10;91.10
78325;DHT22;67584;51.400;6.692;2024-03-06T09:19:21;8.20;90.80
78325;DHT22;67584;51.400;6.692;2024-03-06T09:21:47;8.20;90.20
78325;DHT22;67584;51.400;6.692;2024-03-06T09:24:13;8.50;89.70
78325;DHT22;67584;51.400;6.692;2024-03-06T09:26:39;8.50;87.00
78325;DHT22;67584;51.400;6.692;2024-03-06T09:29:05;8.80;87.30
78325;DHT22;67584;51.400;6.692;2024-03-06T09:31:31;9.20;85.70
78325;DHT22;67584;51.400;6.692;2024-03-06T09:33:56;9.50;83.40
78325;DHT22;67584;51.400;6.692;2024-03-06T09:36:23;9.40;84.10
78325;DHT22;67584;51.400;6.692;2024-03-06T09:38:49;9.40;84.60
78325;DHT22;67584;51.400;6.692;2024-03-06T09:41:15;9.30;83.90
78325;DHT22;67584;51.400;6.692;2024-03-06T09:43:41;9.30;84.60
78325;DHT22;67584;51.400;6.692;2024-03-06T09:46:09;9.40;85.00
78325;DHT22;67584;51.400;6.692;2024-03-06T09:48:34;9.60;84.10
78325;DHT22;67584;51.400;6.692;2024-03-06T09:51:01;9.80;82.70
78325;DHT22;67584;51.400;6.692;2024-03-06T09:53:28;10.10;81.90
78325;DHT22;67584;51.400;6.692;2024-03-06T09:55:55;10.70;80.40
78325;DHT22;67584;51.400;6.692;2024-03-06T09:58:21;11.00;78.00
78325;DHT22;67584;51.400;6.692;2024-03-06T10:00:49;11.60;77.30
78325;DHT22;67584;51.400;6.692;2024-03-06T10:03:15;12.70;73.90
78325;DHT22;67584;51.400;6.692;2024-03-06T10:05:41;13.20;72.50
78325;DHT22;67584;51.400;6.692;2024-03-06T10:08:09;13.30;69.10
78325;DHT22;67584;51.400;6.692;2024-03-06T10:10:35;12.90;71.60
78325;DHT22;67584;51.400;6.692;2024-03-06T10:13:02;12.60;74.30
78325;DHT22;67584;51.400;6.692;2024-03-06T10:15:28;13.00;72.10
78325;DHT22;67584;51.400;6.692;2024-03-06T10:18:14;13.20;71.70
78325;DHT22;67584;51.400;6.692;2024-03-06T10:20:41;13.40;73.10
78325;DHT22;67584;51.400;6.692;2024-03-06T10:23:10;14.20;72.40
78325;DHT22;67584;51.400;6.692;2024-03-06T10:25:36;14.90;69.40
78325;DHT22;67584;51.400;6.692;2024-03-06T10:28:09;15.80;65.70
78325;DHT22;67584;51.400;6.692;2024-03-06T10:30:40;16.50;63.10
78325;DHT22;67584;51.400;6.692;2024-03-06T10:33:10;16.70;63.00
78325;DHT22;67584;51.400;6.692;2024-03-06T10:35:36;17.40;61.30
78325;DHT22;67584;51.400;6.692;2024-03-06T10:38:07;17.20;57.70
78325;DHT22;67584;51.400;6.692;2024-03-06T10:40:38;16.20;60.10
78325;DHT22;67584;51.400;6.692;2024-03-06T10:43:05;15.10;61.20
78325;DHT22;67584;51.400;6.692;2024-03-06T10:45:46;14.20;65.30
78325;DHT22;67584;51.400;6.692;2024-03-06T10:48:17;13.30;69.90
78325;DHT22;67584;51.400;6.692;2024-03-06T10:50:44;13.00;71.00
78325;DHT22;67584;51.400;6.692;2024-03-06T10:53:11;13.20;69.00
78325;DHT22;67584;51.400;6.692;2024-03-06T10:55:38;13.00;72.60
78325;DHT22;67584;51.400;6.692;2024-03-06T10:58:08;12.90;71.60
78325;DHT22;67584;51.400;6.692;2024-03-06T11:00:39;12.70;72.00
78325;DHT22;67584;51.400;6.692;2024-03-06T11:03:09;12.60;72.30
78325;DHT22;67584;51.400;6.692;2024-03-06T11:05:41;12.50;72.20
78325;DHT22;67584;51.400;6.692;2024-03-06T11:08:11;12.00;73.60
78325;DHT22;67584;51.400;6.692;2024-03-06T11:10:39;11.70;74.30
78325;DHT22;67584;51.400;6.692;2024-03-06T11:13:24;11.70;74.80
78325;DHT22;67584;51.400;6.692;2024-03-06T11:15:57;11.60;74.50
78325;DHT22;67584;51.400;6.692;2024-03-06T11:23:27;11.70;74.90
78325;DHT22;67584;51.400;6.692;2024-03-06T11:28:26;11.50;76.10
78325;DHT22;67584;51.400;6.692;2024-03-06T11:31:08;11.50;75.90
78325;DHT22;67584;51.400;6.692;2024-03-06T11:33:42;11.50;75.60
78325;DHT22;67584;51.400;6.692;2024-03-06T11:36:25;11.40;75.90
78325;DHT22;67584;51.400;6.692;2024-03-06T11:38:53;11.60;76.00
78325;DHT22;67584;51.400;6.692;2024-03-06T11:41:20;11.90;75.60
78325;DHT22;67584;51.400;6.692;2024-03-06T11:43:48;12.10;74.60
78325;DHT22;67584;51.400;6.692;2024-03-06T11:46:16;12.10;74.50
78325;DHT22;67584;51.400;6.692;2024-03-06T11:48:43;12.10;74.40
78325;DHT22;67584;51.400;6.692;2024-03-06T11:51:09;12.20;74.10
78325;DHT22;67584;51.400;6.692;2024-03-06T11:53:35;12.40;74.90
78325;DHT22;67584;51.400;6.692;2024-03-06T11:56:05;12.80;74.00
78325;DHT22;67584;51.400;6.692;2024-03-06T11:58:31;13.00;72.30
78325;DHT22;67584;51.400;6.692;2024-03-06T12:00:56;13.20;73.20
78325;DHT22;67584;51.400;6.692;2024-03-06T12:03:22;13.60;72.20
78325;DHT22;67584;51.400;6.692;2024-03-06T12:05:51;13.80;71.00
78325;DHT22;67584;51.400;6.692;2024-03-06T12:08:17;14.10;70.30
78325;DHT22;67584;51.400;6.692;2024-03-06T12:10:45;14.20;67.00
78325;DHT22;67584;51.400;6.692;2024-03-06T12:13:11;14.30;68.10
78325;DHT22;67584;51.400;6.692;2024-03-06T12:15:37;14.30;66.50
78325;DHT22;67584;51.400;6.692;2024-03-06T12:18:03;14.30;65.40
78325;DHT22;67584;51.400;6.692;2024-03-06T12:20:31;14.50;66.30
78325;DHT22;67584;51.400;6.692;2024-03-06T12:22:57;14.60;64.60
78325;DHT22;67584;51.400;6.692;2024-03-06T12:25:25;14.50;64.20
78325;DHT22;67584;51.400;6.692;2024-03-06T12:27:52;14.20;63.50
78325;DHT22;67584;51.400;6.692;2024-03-06T12:30:23;14.10;63.50
78325;DHT22;67584;51.400;6.692;2024-03-06T12:33:01;14.30;66.30
78325;DHT22;67584;51.400;6.692;2024-03-06T12:35:31;14.70;65.30
78325;DHT22;67584;51.400;6.692;2024-03-06T12:37:57;16.10;64.20
78325;DHT22;67584;51.400;6.692;2024-03-06T12:40:23;18.50;57.20
78325;DHT22;67584;51.400;6.692;2024-03-06T12:42:49;19.70;51.80
78325;DHT22;67584;51.400;6.692;2024-03-06T12:45:17;21.80;46.30
78325;DHT22;67584;51.400;6.692;2024-03-06T12:47:44;23.00;42.10
78325;DHT22;67584;51.400;6.692;2024-03-06T12:50:14;23.90;41.60
78325;DHT22;67584;51.400;6.692;2024-03-06T12:52:40;24.40;37.60
78325;DHT22;67584;51.400;6.692;2024-03-06T12:55:07;24.40;38.30
78325;DHT22;67584;51.400;6.692;2024-03-06T12:57:33;24.40;36.20
78325;DHT22;67584;51.400;6.692;2024-03-06T12:59:59;23.60;37.80
78325;DHT22;67584;51.400;6.692;2024-03-06T13:02:25;22.00;39.50
78325;DHT22;67584;51.400;6.692;2024-03-06T13:04:52;20.20;41.40
78325;DHT22;67584;51.400;6.692;2024-03-06T13:07:18;19.00;43.70
78325;DHT22;67584;51.400;6.692;2024-03-06T13:09:44;17.30;46.00
78325;DHT22;67584;51.400;6.692;2024-03-06T13:12:10;16.30;48.70
78325;DHT22;67584;51.400;6.692;2024-03-06T13:14:36;16.30;52.80
78325;DHT22;67584;51.400;6.692;2024-03-06T13:17:01;18.20;46.80
78325;DHT22;67584;51.400;6.692;2024-03-06T13:19:28;20.50;42.20
78325;DHT22;67584;51.400;6.692;2024-03-06T13:21:54;22.70;40.70
78325;DHT22;67584;51.400;6.692;2024-03-06T13:24:39;25.20;36.40
78325;DHT22;67584;51.400;6.692;2024-03-06T13:27:04;26.40;34.80
78325;DHT22;67584;51.400;6.692;2024-03-06T13:29:30;26.30;32.80
78325;DHT22;67584;51.400;6.692;2024-03-06T13:31:56;25.80;33.90
78325;DHT22;67584;51.400;6.692;2024-03-06T13:34:22;25.60;33.50
78325;DHT22;67584;51.400;6.692;2024-03-06T13:36:47;26.60;34.10
78325;DHT22;67584;51.400;6.692;2024-03-06T13:39:13;27.50;31.60
78325;DHT22;67584;51.400;6.692;2024-03-06T13:41:39;27.40;32.20
78325;DHT22;67584;51.400;6.692;2024-03-06T13:44:06;27.40;31.40
78325;DHT22;67584;51.400;6.692;2024-03-06T13:46:33;27.70;30.30
78325;DHT22;67584;51.400;6.692;2024-03-06T13:48:59;28.40;30.90
78325;DHT22;67584;51.400;6.692;2024-03-06T13:51:25;28.00;31.30
78325;DHT22;67584;51.400;6.692;2024-03-06T13:53:51;28.30;31.00
78325;DHT22;67584;51.400;6.692;2024-03-06T13:56:17;27.90;31.00
78325;DHT22;67584;51.400;6.692;2024-03-06T13:58:43;26.40;30.50
78325;DHT22;67584;51.400;6.692;2024-03-06T14:01:09;24.50;34.10
78325;DHT22;67584;51.400;6.692;2024-03-06T14:03:35;22.70;37.70
78325;DHT22;67584;51.400;6.692;2024-03-06T14:06:03;21.10;39.40
78325;DHT22;67584;51.400;6.692;2024-03-06T14:08:29;19.90;41.50
78325;DHT22;67584;51.400;6.692;2024-03-06T14:10:55;19.40;43.60
78325;DHT22;67584;51.400;6.692;2024-03-06T14:13:20;19.60;44.40
78325;DHT22;67584;51.400;6.692;2024-03-06T14:15:46;19.80;43.50
78325;DHT22;67584;51.400;6.692;2024-03-06T14:18:13;20.20;42.20
78325;DHT22;67584;51.400;6.692;2024-03-06T14:20:39;20.20;40.00
78325;DHT22;67584;51.400;6.692;2024-03-06T14:23:05;21.00;41.50
78325;DHT22;67584;51.400;6.692;2024-03-06T14:25:31;20.90;38.00
78325;DHT22;67584;51.400;6.692;2024-03-06T14:28:02;19.80;39.70
78325;DHT22;67584;51.400;6.692;2024-03-06T14:30:27;19.80;43.50
78325;DHT22;67584;51.400;6.692;2024-03-06T14:32:53;20.70;39.10
78325;DHT22;67584;51.400;6.692;2024-03-06T14:35:19;20.10;41.20
78325;DHT22;67584;51.400;6.692;2024-03-06T14:37:44;20.00;40.50
78325;DHT22;67584;51.400;6.692;2024-03-06T14:40:10;19.40;42.80
78325;DHT22;67584;51.400;6.692;2024-03-06T14:42:36;18.50;43.80
78325;DHT22;67584;51.400;6.692;2024-03-06T14:45:02;17.60;47.20
78325;DHT22;67584;51.400;6.692;2024-03-06T14:47:31;16.60;49.10
78325;DHT22;67584;51.400;6.692;2024-03-06T14:49:57;16.90;51.20
78325;DHT22;67584;51.400;6.692;2024-03-06T14:52:23;19.60;46.50
78325;DHT22;67584;51.400;6.692;2024-03-06T14:54:49;21.70;42.60
78325;DHT22;67584;51.400;6.692;2024-03-06T14:57:14;22.10;39.10
78325;DHT22;67584;51.400;6.692;2024-03-06T14:59:40;21.70;39.10
78325;DHT22;67584;51.400;6.692;2024-03-06T15:02:06;20.40;41.50
78325;DHT22;67584;51.400;6.692;2024-03-06T15:04:32;19.30;43.40
78325;DHT22;67584;51.400;6.692;2024-03-06T15:06:58;20.20;42.20
78325;DHT22;67584;51.400;6.692;2024-03-06T15:09:25;19.30;44.00
78325;DHT22;67584;51.400;6.692;2024-03-06T15:11:52;19.70;44.30
78325;DHT22;67584;51.400;6.692;2024-03-06T15:14:18;20.40;42.00
78325;DHT22;67584;51.400;6.692;2024-03-06T15:16:47;19.50;44.50
78325;DHT22;67584;51.400;6.692;2024-03-06T15:19:14;18.60;47.40
78325;DHT22;67584;51.400;6.692;2024-03-06T15:21:41;17.70;48.00
78325;DHT22;67584;51.400;6.692;2024-03-06T15:24:07;17.00;49.70
78325;DHT22;67584;51.400;6.692;2024-03-06T15:26:33;16.30;51.20
78325;DHT22;67584;51.400;6.692;2024-03-06T15:29:01;15.90;53.20
78325;DHT22;67584;51.400;6.692;2024-03-06T15:31:30;15.70;53.10
78325;DHT22;67584;51.400;6.692;2024-03-06T15:33:55;15.20;54.40
78325;DHT22;67584;51.400;6.692;2024-03-06T15:36:21;14.90;56.00
78325;DHT22;67584;51.400;6.692;2024-03-06T15:38:47;14.70;55.90
78325;DHT22;67584;51.400;6.692;2024-03-06T15:41:12;14.60;56.20
78325;DHT22;67584;51.400;6.692;2024-03-06T15:43:38;14.50;56.00